Time;durP1;ratioP1;P1;durP2;ratioP2;P2;SDS_P1;SDS_P2;PMS_P1;PMS_P2;Temp;Humidity;BMP_temperature;BMP_pressure;BME280_temperature;BME280_humidity;BME280_pressure;Samples;Min_cycle;Max_cycle;Signal;HPM_P1;HPM_P2
2022/06/17 00:00:46;;;;;;;3.33;2.57;;;18.80;58.40;;;;;;5079138;28;20467;-85
2022/06/17 00:03:13;;;;;;;2.87;2.67;;;18.80;58.60;;;;;;5070031;28;20480;-85
2022/06/17 00:05:40;;;;;;;4.00;2.67;;;18.80;58.50;;;;;;5059232;28;20461;-85
2022/06/17 00:08:12;;;;;;;4.03;3.70;;;18.90;58.90;;;;;;5066933;28;20447;-84
2022/06/17 00:10:39;;;;;;;3.20;2.93;;;18.80;58.50;;;;;;5078784;28;20459;-85
2022/06/17 00:13:11;;;;;;;5.00;3.77;;;18.80;59.10;;;;;;5071651;28;20486;-84
2022/06/17 00:15:38;;;;;;;4.00;2.70;;;18.80;59.30;;;;;;5059471;28;20452;-84
2022/06/17 00:18:05;;;;;;;3.40;3.10;;;18.70;59.50;;;;;;5065334;28;20452;-83
2022/06/17 00:20:34;;;;;;;2.67;2.57;;;18.70;59.60;;;;;;5079132;28;20454;-85
2022/06/17 00:23:01;;;;;;;3.20;3.00;;;18.70;59.30;;;;;;5074255;28;20898;-84
2022/06/17 00:25:30;;;;;;;3.40;3.20;;;18.70;59.80;;;;;;5059197;28;20455;-84
2022/06/17 00:27:57;;;;;;;2.30;2.20;;;18.80;60.00;;;;;;5060221;28;20487;-85
2022/06/17 00:30:27;;;;;;;2.67;2.57;;;18.70;59.80;;;;;;5059566;28;20452;-85
2022/06/17 00:32:54;;;;;;;3.00;2.73;;;18.80;59.70;;;;;;5062631;28;20467;-83
2022/06/17 00:35:22;;;;;;;2.70;2.53;;;18.80;60.20;;;;;;5079073;28;20458;-85
2022/06/17 00:37:49;;;;;;;2.27;2.17;;;18.60;61.00;;;;;;5077668;28;20826;-85
2022/06/17 00:40:18;;;;;;;3.17;2.77;;;18.50;62.30;;;;;;5058989;28;20458;-83
2022/06/17 00:42:45;;;;;;;3.70;2.50;;;18.40;62.20;;;;;;5059948;28;20471;-85
2022/06/17 00:45:23;;;;;;;3.13;2.93;;;18.20;62.50;;;;;;5078848;28;20450;-85
2022/06/17 00:48:02;;;;;;;3.33;3.03;;;18.10;63.40;;;;;;5078334;28;20861;-85
2022/06/17 00:50:36;;;;;;;2.90;2.70;;;18.00;63.80;;;;;;5079500;28;20461;-85
2022/06/17 00:53:14;;;;;;;4.63;3.13;;;18.00;64.00;;;;;;5077146;28;20470;-84
2022/06/17 00:55:44;;;;;;;3.17;2.97;;;17.90;64.20;;;;;;5059646;28;20457;-84
2022/06/17 00:58:16;;;;;;;2.73;2.43;;;17.90;64.50;;;;;;5061997;28;20975;-85
2022/06/17 01:00:44;;;;;;;3.20;3.00;;;17.80;64.90;;;;;;5077306;28;20936;-86
2022/06/17 01:03:21;;;;;;;3.50;3.20;;;17.80;64.80;;;;;;5074849;28;20932;-84
2022/06/17 01:05:52;;;;;;;3.40;2.40;;;17.90;65.40;;;;;;5059226;28;20478;-85
2022/06/17 01:11:11;;;;;;;3.67;3.37;;;17.80;65.10;;;;;;5079124;28;20438;-83
2022/06/17 01:13:39;;;;;;;3.03;2.80;;;17.90;65.90;;;;;;5079052;28;20455;-83
2022/06/17 01:16:06;;;;;;;3.23;3.03;;;17.80;65.70;;;;;;5065101;28;20451;-83
2022/06/17 01:18:38;;;;;;;2.20;2.10;;;17.80;66.60;;;;;;5069124;28;20442;-82
2022/06/17 01:21:14;;;;;;;2.90;2.70;;;17.60;67.20;;;;;;5086320;28;20594;-83
2022/06/17 01:23:42;;;;;;;3.40;3.10;;;17.50;67.50;;;;;;5082902;28;20478;-83
2022/06/17 01:26:10;;;;;;;4.20;3.50;;;17.50;67.90;;;;;;5073113;28;20427;-82
2022/06/17 01:28:36;;;;;;;3.57;3.20;;;17.50;68.40;;;;;;5074701;28;20558;-83
2022/06/17 01:31:06;;;;;;;2.97;2.77;;;17.50;68.50;;;;;;5087896;28;20446;-83
2022/06/17 01:33:35;;;;;;;3.00;2.77;;;17.50;68.90;;;;;;5087112;28;20498;-83
2022/06/17 01:36:05;;;;;;;3.03;2.90;;;17.40;68.60;;;;;;5086126;28;20530;-84
2022/06/17 01:38:33;;;;;;;3.33;3.03;;;17.50;68.50;;;;;;5086324;28;20533;-83
2022/06/17 01:41:03;;;;;;;3.17;3.00;;;17.50;68.60;;;;;;5066230;28;20455;-84
2022/06/17 01:43:36;;;;;;;2.90;2.77;;;17.50;68.70;;;;;;5064838;28;20451;-84
2022/06/17 01:46:08;;;;;;;3.33;3.07;;;17.50;69.40;;;;;;5084214;28;20464;-83
2022/06/17 01:48:38;;;;;;;3.00;2.80;;;17.40;70.50;;;;;;5082573;28;20454;-85
2022/06/17 01:51:07;;;;;;;3.30;3.10;;;17.30;71.10;;;;;;5062579;28;20479;-85
2022/06/17 01:53:37;;;;;;;3.60;3.30;;;17.30;71.00;;;;;;5063033;28;20450;-84
2022/06/17 01:56:10;;;;;;;3.00;2.80;;;17.30;71.20;;;;;;5063340;28;20546;-85
2022/06/17 01:58:40;;;;;;;3.63;3.33;;;17.40;71.60;;;;;;5063033;28;20462;-83
2022/06/17 02:01:09;;;;;;;2.80;2.70;;;17.30;71.40;;;;;;5062647;28;20478;-85
2022/06/17 02:03:41;;;;;;;3.13;2.93;;;17.30;71.40;;;;;;5063225;28;20463;-84
2022/06/17 02:06:11;;;;;;;2.80;2.60;;;17.30;71.90;;;;;;5082426;28;20458;-85
2022/06/17 02:08:39;;;;;;;3.13;2.93;;;17.30;72.30;;;;;;5082324;28;20446;-84
2022/06/17 02:11:08;;;;;;;2.60;2.50;;;17.30;72.40;;;;;;5062580;28;20474;-85
2022/06/17 02:13:36;;;;;;;2.80;2.60;;;17.30;72.70;;;;;;5062710;28;20447;-85
2022/06/17 02:16:06;;;;;;;3.43;3.23;;;17.30;72.90;;;;;;5086541;28;20427;-82
2022/06/17 02:18:34;;;;;;;2.93;2.73;;;17.30;72.90;;;;;;5080106;28;20437;-83
2022/06/17 02:21:06;;;;;;;3.47;3.17;;;17.20;73.00;;;;;;5061703;28;20443;-83
2022/06/17 02:23:33;;;;;;;3.20;2.97;;;17.20;73.50;;;;;;5059016;28;20474;-83
2022/06/17 02:26:03;;;;;;;4.50;3.50;;;17.20;74.20;;;;;;5059718;28;20447;-85
2022/06/17 02:28:32;;;;;;;3.30;3.10;;;17.20;74.10;;;;;;5061207;28;20487;-84
2022/06/17 02:31:02;;;;;;;2.63;2.53;;;17.10;74.60;;;;;;5060645;28;20469;-85
2022/06/17 02:33:31;;;;;;;3.87;3.67;;;16.80;75.60;;;;;;5066440;28;20453;-84
2022/06/17 02:36:02;;;;;;;3.70;3.50;;;16.80;76.20;;;;;;5080793;28;20457;-84
2022/06/17 02:38:33;;;;;;;3.77;3.47;;;16.80;77.20;;;;;;5075665;28;20447;-84
2022/06/17 02:41:05;;;;;;;3.60;3.40;;;16.90;77.50;;;;;;5061026;28;20452;-85
2022/06/17 02:43:39;;;;;;;3.03;2.90;;;16.80;77.80;;;;;;5063043;28;20451;-85
2022/06/17 02:46:11;;;;;;;3.10;2.57;;;16.70;77.70;;;;;;5061355;28;20941;-85
2022/06/17 02:48:43;;;;;;;3.10;2.90;;;16.70;78.10;;;;;;5066675;28;20486;-85
2022/06/17 02:51:13;;;;;;;3.63;3.43;;;16.60;78.40;;;;;;5081419;28;20473;-84
2022/06/17 02:53:41;;;;;;;4.37;3.43;;;16.60;79.30;;;;;;5076760;28;20512;-85
2022/06/17 02:56:17;;;;;;;3.00;2.80;;;16.50;79.40;;;;;;5061627;28;20459;-85
2022/06/17 02:58:52;;;;;;;3.50;3.30;;;16.50;80.20;;;;;;5065646;28;20461;-84
2022/06/17 03:01:22;;;;;;;3.87;3.00;;;16.50;80.90;;;;;;5080967;28;20468;-84
2022/06/17 03:03:50;;;;;;;3.30;3.10;;;16.50;81.80;;;;;;5075954;28;20461;-85
2022/06/17 03:06:20;;;;;;;3.60;3.30;;;16.40;81.80;;;;;;5070797;28;20487;-82
2022/06/17 03:08:50;;;;;;;3.87;3.47;;;16.40;82.10;;;;;;5055594;28;20928;-82
2022/06/17 03:11:17;;;;;;;3.37;3.17;;;16.30;82.50;;;;;;5053747;28;20470;-84
2022/06/17 03:13:51;;;;;;;4.53;3.73;;;16.30;83.60;;;;;;5057899;28;20467;-84
2022/06/17 03:16:19;;;;;;;3.70;3.50;;;16.10;84.80;;;;;;5060417;28;20453;-84
2022/06/17 03:18:48;;;;;;;3.50;3.20;;;16.00;85.80;;;;;;5066735;28;20453;-84
2022/06/17 04:33:48;;;;;;;3.17;2.97;;;15.80;93.00;;;;;;4856902;29;20564;-83
2022/06/17 04:36:25;;;;;;;3.13;2.83;;;15.80;93.10;;;;;;4881672;29;20476;-83
2022/06/17 04:38:56;;;;;;;3.23;3.03;;;15.90;93.30;;;;;;4946722;29;20552;-83
2022/06/17 04:41:32;;;;;;;3.60;3.40;;;15.90;93.20;;;;;;4956052;29;20484;-83
2022/06/17 04:44:04;;;;;;;3.17;2.97;;;15.90;92.70;;;;;;4955964;29;20450;-83
2022/06/17 04:46:41;;;;;;;3.43;3.23;;;15.90;92.40;;;;;;4956592;29;20465;-83
2022/06/17 04:49:18;;;;;;;3.50;3.10;;;15.90;92.50;;;;;;4937462;29;20439;-83
2022/06/17 04:51:50;;;;;;;3.50;3.20;;;16.00;92.50;;;;;;4997185;28;20487;-83
2022/06/17 04:54:20;;;;;;;3.67;3.23;;;16.10;92.20;;;;;;4997998;28;20835;-83
2022/06/17 04:56:51;;;;;;;6.30;3.87;;;16.20;92.20;;;;;;4997480;28;20511;-83
2022/06/17 04:59:27;;;;;;;4.20;3.80;;;16.40;92.20;;;;;;5019963;28;20448;-85
2022/06/17 05:02:16;;;;;;;4.53;2.70;;;16.40;92.30;;;;;;5020999;28;20563;-84
2022/06/17 05:04:46;;;;;;;3.50;2.93;;;16.60;92.10;;;;;;5003677;28;20524;-85
2022/06/17 05:07:15;;;;;;;3.00;2.80;;;16.70;91.80;;;;;;5003686;28;20575;-84
2022/06/17 05:09:45;;;;;;;3.23;3.03;;;16.70;91.90;;;;;;5003928;28;20824;-85
2022/06/17 05:12:17;;;;;;;3.10;2.90;;;16.90;91.60;;;;;;5003579;28;20479;-85
2022/06/17 05:14:49;;;;;;;3.23;3.03;;;16.90;91.50;;;;;;5023152;28;20456;-85
2022/06/17 05:17:16;;;;;;;3.33;3.13;;;16.90;91.50;;;;;;5022417;28;20455;-84
2022/06/17 05:19:48;;;;;;;3.73;3.10;;;16.90;92.60;;;;;;5001840;28;20450;-85
2022/06/17 05:22:20;;;;;;;4.17;3.87;;;16.90;92.80;;;;;;5004017;28;20477;-85
2022/06/17 05:24:47;;;;;;;3.63;3.33;;;17.00;92.20;;;;;;5003567;28;20447;-87
2022/06/17 05:27:14;;;;;;;2.77;2.53;;;17.00;91.70;;;;;;5004593;28;20461;-86
2022/06/17 05:29:41;;;;;;;3.30;3.10;;;17.20;91.50;;;;;;5023834;28;20462;-84
2022/06/17 05:32:12;;;;;;;3.93;3.43;;;17.30;91.00;;;;;;5024428;28;20479;-85
2022/06/17 05:34:39;;;;;;;4.13;3.80;;;17.50;91.00;;;;;;5005380;28;20461;-86
2022/06/17 05:37:07;;;;;;;3.20;3.00;;;17.40;91.40;;;;;;5003654;28;20470;-86
2022/06/17 05:39:34;;;;;;;3.83;3.30;;;17.50;91.00;;;;;;5021589;28;20457;-85
2022/06/17 05:42:00;;;;;;;3.97;3.10;;;17.50;89.90;;;;;;5024108;28;20476;-86
2022/06/17 05:44:27;;;;;;;3.37;3.00;;;17.70;89.70;;;;;;5022325;28;20833;-84
2022/06/17 05:46:54;;;;;;;3.60;3.40;;;17.80;89.30;;;;;;5025014;28;20461;-86
2022/06/17 05:49:21;;;;;;;4.10;3.80;;;17.90;89.00;;;;;;5007439;28;20868;-85
2022/06/17 05:51:48;;;;;;;3.27;3.07;;;18.00;88.60;;;;;;5002250;28;20990;-85
2022/06/17 05:54:16;;;;;;;3.20;3.00;;;18.00;88.10;;;;;;5015344;28;20458;-85
2022/06/17 05:56:44;;;;;;;3.00;2.80;;;18.10;87.80;;;;;;5022481;28;20457;-85
2022/06/17 05:59:11;;;;;;;3.30;3.00;;;18.20;88.30;;;;;;5010195;28;20489;-86
2022/06/17 06:01:38;;;;;;;3.00;2.80;;;18.30;88.00;;;;;;5001255;28;20473;-86
2022/06/17 06:04:06;;;;;;;3.37;3.07;;;18.40;87.70;;;;;;5011779;28;20457;-86
2022/06/17 06:06:32;;;;;;;3.20;3.00;;;18.60;87.00;;;;;;5021500;28;20457;-86
2022/06/17 06:08:59;;;;;;;3.93;3.40;;;18.60;85.70;;;;;;5004587;28;20492;-86
2022/06/17 06:11:27;;;;;;;3.20;2.90;;;18.60;86.20;;;;;;5006109;28;20458;-84
2022/06/17 06:13:54;;;;;;;3.77;3.47;;;18.60;85.80;;;;;;5019277;28;20460;-86
2022/06/17 06:16:23;;;;;;;4.50;3.80;;;18.80;87.30;;;;;;5022238;28;20462;-86
2022/06/17 06:18:50;;;;;;;3.57;3.10;;;19.00;86.40;;;;;;5004431;28;20459;-86
2022/06/17 06:21:17;;;;;;;6.70;3.27;;;19.00;86.00;;;;;;5003571;28;20454;-87
2022/06/17 06:23:44;;;;;;;4.17;3.77;;;19.20;86.70;;;;;;5023312;28;20447;-86
2022/06/17 06:26:14;;;;;;;3.47;3.17;;;19.30;87.00;;;;;;5021743;28;20512;-86
2022/06/17 06:28:43;;;;;;;4.30;2.73;;;19.40;85.40;;;;;;5022449;28;20480;-86
2022/06/17 06:31:20;;;;;;;3.23;3.03;;;19.50;85.20;;;;;;5023041;28;20518;-86
2022/06/17 06:33:47;;;;;;;3.30;3.07;;;19.50;85.20;;;;;;5023212;28;20449;-85
2022/06/17 06:36:17;;;;;;;4.23;3.83;;;19.80;84.70;;;;;;5012552;28;20837;-85
2022/06/17 06:38:44;;;;;;;4.47;3.10;;;19.90;83.50;;;;;;5001083;28;20831;-85
2022/06/17 06:41:11;;;;;;;3.30;3.10;;;20.00;84.00;;;;;;5009366;28;20456;-85
2022/06/17 06:43:39;;;;;;;3.83;3.13;;;20.20;84.50;;;;;;5009937;28;20448;-85
2022/06/17 06:46:11;;;;;;;3.70;3.40;;;20.30;85.70;;;;;;5011097;28;20463;-84
2022/06/17 06:48:38;;;;;;;3.57;3.30;;;20.40;83.80;;;;;;5016490;28;20506;-87
2022/06/17 06:51:08;;;;;;;3.77;3.47;;;20.40;83.30;;;;;;5025621;28;20474;-85
2022/06/17 06:53:35;;;;;;;3.83;3.50;;;20.50;83.30;;;;;;5022476;28;20454;-85
2022/06/17 06:56:03;;;;;;;3.67;3.37;;;20.50;83.30;;;;;;5015887;28;20454;-85
2022/06/17 06:58:30;;;;;;;3.47;3.27;;;20.50;82.50;;;;;;5014948;28;20976;-85
2022/06/17 07:00:58;;;;;;;5.97;3.80;;;20.50;83.20;;;;;;5013946;28;20801;-85
2022/06/17 07:03:28;;;;;;;3.13;2.90;;;20.50;83.20;;;;;;5014205;28;20550;-85
2022/06/17 07:05:57;;;;;;;3.73;3.43;;;20.50;81.90;;;;;;5014590;28;20446;-85
2022/06/17 07:08:27;;;;;;;5.00;3.70;;;20.60;82.20;;;;;;5014495;28;20480;-84
2022/06/17 07:10:59;;;;;;;5.20;3.37;;;20.70;80.60;;;;;;5017037;28;20452;-85
2022/06/17 07:13:26;;;;;;;4.17;3.77;;;20.70;80.20;;;;;;5014233;28;21070;-84
2022/06/17 07:15:54;;;;;;;4.10;3.80;;;20.70;79.70;;;;;;5015181;28;20453;-84
2022/06/17 07:18:23;;;;;;;4.10;3.90;;;20.60;79.00;;;;;;5016530;28;20493;-85
2022/06/17 07:20:54;;;;;;;3.93;3.63;;;20.70;79.60;;;;;;5008613;28;20948;-86
2022/06/17 07:23:25;;;;;;;4.50;4.20;;;20.90;79.80;;;;;;5016999;28;20464;-86
2022/06/17 07:26:03;;;;;;;4.00;3.53;;;20.80;78.10;;;;;;5015369;28;20485;-89
2022/06/17 07:28:32;;;;;;;4.73;4.07;;;20.70;77.50;;;;;;5015204;28;20902;-86
2022/06/17 07:31:00;;;;;;;3.80;3.50;;;20.70;78.10;;;;;;5014618;28;20467;-86
2022/06/17 07:33:57;;;;;;;5.00;3.90;;;20.70;77.90;;;;;;5016462;28;20470;-88
2022/06/17 07:41:59;;;;;;;4.03;3.73;;;20.90;83.30;;;;;;5253646;22;20475;-84
2022/06/17 07:55:26;;;;;;;4.27;3.87;;;21.30;82.20;;;;;;5002413;28;20500;-89
2022/06/17 08:01:22;;;;;;;5.43;4.30;;;21.60;79.30;;;;;;5017550;28;20456;-85
2022/06/17 08:31:20;;;;;;;3.60;3.30;;;22.40;73.50;;;;;;5014878;28;20406;-89
2022/06/17 08:33:47;;;;;;;3.57;3.37;;;22.50;74.10;;;;;;5024648;28;20443;-86
2022/06/17 08:36:16;;;;;;;4.50;4.00;;;22.60;76.10;;;;;;5026183;28;20446;-83
2022/06/17 08:38:49;;;;;;;6.40;4.03;;;22.70;75.10;;;;;;5020316;28;20446;-85
2022/06/17 10:18:37;;;;;;;4.07;3.87;;;26.80;61.10;;;;;;5045818;28;20507;-85
2022/06/17 10:21:36;;;;;;;4.57;4.17;;;27.10;59.70;;;;;;5077640;28;20446;-84
2022/06/17 10:24:10;;;;;;;5.97;4.03;;;27.20;61.40;;;;;;5081576;28;20456;-84
2022/06/17 10:26:53;;;;;;;4.63;3.87;;;27.40;58.80;;;;;;5079924;28;20771;-85
2022/06/17 10:29:43;;;;;;;3.57;3.37;;;27.60;57.90;;;;;;5080626;28;20484;-85
2022/06/17 10:32:10;;;;;;;5.50;3.70;;;27.70;56.10;;;;;;5086873;28;20482;-85
2022/06/17 10:34:44;;;;;;;4.43;4.03;;;27.60;57.70;;;;;;5084587;28;20458;-82
2022/06/17 10:37:12;;;;;;;3.87;3.50;;;27.70;55.10;;;;;;5084728;28;20447;-83
2022/06/17 10:39:40;;;;;;;4.30;4.00;;;28.00;56.00;;;;;;5067531;28;20491;-84
2022/06/17 10:42:11;;;;;;;5.53;4.50;;;28.40;55.40;;;;;;5066412;28;20495;-82
2022/06/17 10:44:38;;;;;;;4.10;3.67;;;28.80;54.60;;;;;;5086487;28;20455;-84
2022/06/17 10:47:15;;;;;;;3.50;3.30;;;29.20;55.40;;;;;;5087773;28;20455;-84
2022/06/17 10:49:48;;;;;;;3.23;3.03;;;29.20;50.20;;;;;;5068316;28;20489;-85
2022/06/17 10:52:19;;;;;;;4.50;3.80;;;28.90;49.70;;;;;;5069033;28;20471;-84
2022/06/17 10:55:00;;;;;;;3.10;2.90;;;29.20;51.10;;;;;;5087891;28;20452;-84
2022/06/17 10:57:29;;;;;;;3.57;3.23;;;29.40;49.50;;;;;;5077667;28;20452;-84
2022/06/17 10:59:57;;;;;;;4.17;3.87;;;29.60;47.90;;;;;;5065432;28;20966;-84
2022/06/17 11:02:29;;;;;;;3.37;3.13;;;29.70;48.90;;;;;;5057038;28;21007;-82
2022/06/17 11:04:59;;;;;;;3.83;3.53;;;29.80;49.00;;;;;;5067363;28;20494;-82
2022/06/17 11:07:30;;;;;;;4.27;3.97;;;29.80;48.80;;;;;;5077068;28;20453;-82
2022/06/17 11:10:07;;;;;;;2.80;2.70;;;29.70;47.20;;;;;;5065229;28;20485;-82
2022/06/17 11:12:39;;;;;;;4.20;3.20;;;29.40;46.10;;;;;;5057073;28;20477;-83
2022/06/17 11:15:21;;;;;;;3.03;2.80;;;29.80;46.00;;;;;;5074564;28;20992;-82
2022/06/17 11:17:53;;;;;;;3.53;3.23;;;30.30;48.30;;;;;;5090219;28;20463;-83
2022/06/17 11:20:24;;;;;;;3.23;3.03;;;30.90;48.70;;;;;;5090727;28;20445;-83
2022/06/17 11:22:54;;;;;;;3.00;2.80;;;31.60;45.40;;;;;;5078807;28;20561;-85
2022/06/17 11:25:25;;;;;;;3.70;3.27;;;32.20;43.20;;;;;;5074535;28;20450;-85
2022/06/17 11:27:55;;;;;;;3.50;3.30;;;32.60;42.20;;;;;;5080840;28;20457;-85
2022/06/17 11:30:27;;;;;;;4.00;3.60;;;32.90;40.90;;;;;;5080690;28;20466;-85
2022/06/17 11:32:54;;;;;;;4.23;3.93;;;32.90;40.80;;;;;;5080635;28;20463;-85
2022/06/17 11:35:48;;;;;;;3.10;2.90;;;33.20;42.10;;;;;;5087570;28;20454;-85
2022/06/17 11:38:16;;;;;;;2.60;2.50;;;32.90;39.00;;;;;;5087115;28;20447;-85
2022/06/17 11:40:49;;;;;;;2.90;2.70;;;32.60;40.10;;;;;;5069044;28;20447;-86
2022/06/17 11:43:28;;;;;;;2.50;2.30;;;33.00;37.70;;;;;;5072438;28;20448;-85
2022/06/17 11:45:56;;;;;;;3.17;2.60;;;33.30;35.20;;;;;;5072390;28;20486;-86
2022/06/17 11:48:23;;;;;;;2.80;2.60;;;33.80;34.50;;;;;;5082796;28;20436;-85
2022/06/17 11:51:08;;;;;;;2.70;2.50;;;34.40;37.40;;;;;;5092686;28;20448;-85
2022/06/17 11:53:44;;;;;;;2.43;2.27;;;35.00;34.70;;;;;;5089510;28;20474;-84
2022/06/17 11:56:12;;;;;;;4.37;2.23;;;35.60;33.20;;;;;;5091194;28;20436;-85
2022/06/17 11:58:55;;;;;;;2.70;2.50;;;35.70;33.00;;;;;;5073067;28;20459;-84
2022/06/17 12:01:22;;;;;;;2.27;2.10;;;36.00;35.10;;;;;;5072112;28;20420;-85
2022/06/17 12:03:49;;;;;;;2.87;2.77;;;36.40;33.80;;;;;;5084480;28;20444;-80
2022/06/17 12:06:29;;;;;;;2.90;2.70;;;36.60;34.80;;;;;;5075038;28;20450;-83
2022/06/17 12:09:02;;;;;;;3.07;2.87;;;37.10;35.20;;;;;;5055456;28;20985;-82
2022/06/17 12:11:36;;;;;;;2.67;2.50;;;37.40;31.50;;;;;;5070215;28;20478;-83
2022/06/17 12:14:11;;;;;;;3.00;2.80;;;37.20;31.60;;;;;;5079691;28;20447;-83
2022/06/17 12:16:41;;;;;;;2.80;2.60;;;37.70;31.90;;;;;;5057477;28;20455;-84
2022/06/17 12:19:20;;;;;;;2.83;2.63;;;38.00;31.60;;;;;;5054786;28;20465;-84
2022/06/17 12:21:56;;;;;;;4.13;2.90;;;37.70;31.30;;;;;;5072053;28;20538;-80
2022/06/17 12:24:32;;;;;;;3.23;3.10;;;37.80;31.70;;;;;;5075478;28;20439;-84
2022/06/17 12:27:08;;;;;;;4.63;4.20;;;38.00;30.70;;;;;;5059394;28;20479;-84
2022/06/17 12:29:39;;;;;;;3.07;2.87;;;38.70;32.80;;;;;;5055000;28;20494;-84
2022/06/17 12:32:14;;;;;;;5.67;3.00;;;39.30;30.30;;;;;;5070276;28;20464;-83
2022/06/17 12:34:49;;;;;;;2.60;2.50;;;39.90;28.90;;;;;;5056319;28;20456;-84
2022/06/17 12:37:32;;;;;;;2.93;2.73;;;39.90;29.50;;;;;;5051654;28;20444;-84
2022/06/17 12:40:06;;;;;;;3.83;2.60;;;40.20;28.00;;;;;;5070312;28;20837;-83
2022/06/17 12:42:37;;;;;;;3.17;2.97;;;40.50;27.60;;;;;;5071577;28;20878;-84
2022/06/17 12:45:19;;;;;;;2.97;2.77;;;40.80;27.60;;;;;;5052877;28;20460;-84
2022/06/17 12:48:00;;;;;;;3.33;3.10;;;40.80;29.40;;;;;;5055662;28;20520;-85
2022/06/17 12:53:28;;;;;;;2.13;2.03;;;41.50;28.30;;;;;;5061888;28;20482;-83
2022/06/17 12:56:13;;;;;;;2.47;2.37;;;41.60;27.30;;;;;;5071926;28;20451;-82
2022/06/17 12:59:16;;;;;;;2.80;2.43;;;41.80;27.80;;;;;;5072180;28;20451;-84
2022/06/17 13:01:51;;;;;;;3.37;2.90;;;42.40;26.70;;;;;;4993807;28;20489;-83
2022/06/17 13:04:26;;;;;;;2.40;2.30;;;42.80;26.10;;;;;;5070233;28;20963;-84
2022/06/17 13:07:06;;;;;;;2.60;2.30;;;42.70;25.60;;;;;;5077151;28;20477;-85
2022/06/17 13:09:46;;;;;;;2.67;2.57;;;42.80;26.10;;;;;;5072965;28;20493;-84
2022/06/17 13:17:37;;;;;;;2.50;2.30;;;42.90;26.30;;;;;;4919254;26;20486;-82
2022/06/17 13:20:10;;;;;;;2.60;2.50;;;43.40;25.90;;;;;;5093297;28;20574;-82
2022/06/17 13:22:45;;;;;;;2.10;2.00;;;43.90;25.40;;;;;;5084018;28;20541;-83
2022/06/17 13:25:22;;;;;;;2.17;1.97;;;44.40;23.90;;;;;;5076024;28;20455;-82
2022/06/17 13:27:58;;;;;;;2.10;2.00;;;45.00;24.30;;;;;;5069922;28;20941;-83
2022/06/17 13:30:30;;;;;;;2.03;1.93;;;44.40;22.30;;;;;;5081587;28;20813;-81
2022/06/17 13:33:02;;;;;;;2.33;2.13;;;43.70;22.60;;;;;;5089784;28;20510;-81
2022/06/17 13:35:34;;;;;;;2.50;1.70;;;43.00;23.20;;;;;;5090398;28;20470;-81
2022/06/17 13:38:05;;;;;;;2.13;2.00;;;43.60;22.90;;;;;;5092080;28;20435;-83
2022/06/17 13:40:39;;;;;;;1.93;1.83;;;43.20;22.10;;;;;;5092131;28;20487;-83
2022/06/17 13:43:13;;;;;;;2.50;1.93;;;42.50;23.00;;;;;;5091932;28;20467;-83
2022/06/17 13:45:45;;;;;;;3.13;2.53;;;42.30;22.60;;;;;;5092049;28;20444;-84
2022/06/17 13:48:17;;;;;;;2.13;2.03;;;43.20;22.70;;;;;;5077244;28;20444;-83
2022/06/17 13:50:54;;;;;;;3.13;2.00;;;44.10;23.40;;;;;;5071355;28;20459;-83
2022/06/17 13:53:37;;;;;;;1.93;1.83;;;44.90;22.30;;;;;;5071544;28;20464;-83
2022/06/17 13:56:11;;;;;;;1.83;1.73;;;45.40;21.40;;;;;;5071013;28;20448;-84
2022/06/17 13:58:46;;;;;;;1.53;1.47;;;44.90;21.60;;;;;;5071722;28;20458;-83
2022/06/17 14:01:30;;;;;;;2.40;2.30;;;44.90;22.30;;;;;;5070839;28;20575;-83
2022/06/17 14:04:19;;;;;;;3.10;2.10;;;45.60;22.10;;;;;;5071157;28;20448;-84
2022/06/17 14:07:04;;;;;;;4.10;1.60;;;46.10;21.00;;;;;;5071547;28;20444;-83
2022/06/17 14:09:38;;;;;;;1.70;1.60;;;46.60;21.10;;;;;;5067738;28;20629;-84
2022/06/17 14:12:22;;;;;;;1.93;1.83;;;46.90;19.70;;;;;;5064677;28;20550;-84
2022/06/17 14:14:50;;;;;;;1.80;1.70;;;47.40;20.20;;;;;;5064359;28;20456;-84
2022/06/17 14:17:22;;;;;;;2.23;1.73;;;47.60;20.60;;;;;;5064652;28;20462;-85
2022/06/17 14:19:52;;;;;;;2.13;1.97;;;47.80;20.10;;;;;;5065280;28;20488;-86
2022/06/17 14:22:24;;;;;;;2.33;2.23;;;48.00;20.50;;;;;;5064394;28;20476;-84
2022/06/17 14:25:26;;;;;;;2.17;1.97;;;48.40;19.40;;;;;;5064480;28;20452;-85
2022/06/17 14:27:59;;;;;;;1.63;1.53;;;48.80;19.40;;;;;;5063506;28;20462;-84
2022/06/17 14:30:50;;;;;;;1.77;1.67;;;48.00;18.20;;;;;;5080675;28;20432;-85
2022/06/17 14:33:39;;;;;;;2.17;2.07;;;47.10;19.70;;;;;;5060770;28;20472;-85
2022/06/17 14:36:14;;;;;;;2.20;2.10;;;47.60;20.00;;;;;;5079989;28;20451;-85
2022/06/17 14:38:54;;;;;;;3.70;1.77;;;47.60;19.60;;;;;;5081325;28;20717;-84
2022/06/17 14:44:27;;;;;;;1.57;1.47;;;46.00;20.10;;;;;;5066336;28;20815;-84
2022/06/17 14:47:35;;;;;;;1.57;1.50;;;46.30;19.80;;;;;;5081550;28;20554;-84
2022/06/17 14:50:23;;;;;;;1.80;1.70;;;46.60;19.80;;;;;;5081200;28;20448;-84
2022/06/17 14:53:32;;;;;;;1.80;1.70;;;47.20;20.00;;;;;;5072956;28;20502;-85
2022/06/17 14:56:08;;;;;;;2.40;2.27;;;47.70;19.40;;;;;;5020145;28;20457;-86
2022/06/17 14:58:45;;;;;;;2.10;1.63;;;47.80;19.80;;;;;;5060924;28;20455;-86
2022/06/17 15:01:24;;;;;;;1.53;1.50;;;48.20;20.10;;;;;;5075105;28;20471;-86
2022/06/17 15:03:59;;;;;;;2.33;2.17;;;48.60;19.40;;;;;;5078596;28;20458;-87
2022/06/17 15:06:35;;;;;;;1.70;1.60;;;48.60;19.20;;;;;;5088155;28;20431;-86
2022/06/17 15:09:01;;;;;;;1.60;1.60;;;48.70;19.10;;;;;;5088647;28;20454;-83
2022/06/17 15:11:32;;;;;;;1.73;1.60;;;48.90;19.40;;;;;;5086084;28;20450;-85
2022/06/17 15:14:10;;;;;;;2.20;2.00;;;49.30;19.30;;;;;;5088609;28;20451;-86
2022/06/17 15:16:48;;;;;;;1.50;1.40;;;49.40;18.70;;;;;;5087568;28;20497;-84
2022/06/17 15:19:18;;;;;;;1.70;1.60;;;49.30;18.00;;;;;;5069857;28;20451;-83
2022/06/17 15:21:51;;;;;;;2.20;2.10;;;49.30;17.90;;;;;;5067615;28;20497;-85
2022/06/17 15:24:42;;;;;;;1.40;1.40;;;49.40;18.90;;;;;;5102224;22;20521;-84
2022/06/17 15:31:24;;;;;;;2.03;1.93;;;49.30;18.00;;;;;;5076557;28;20483;-82
2022/06/17 15:33:55;;;;;;;1.80;1.70;;;47.90;18.00;;;;;;5093184;28;20482;-82
2022/06/17 15:36:28;;;;;;;1.80;1.70;;;47.90;19.10;;;;;;5089725;28;20534;-84
2022/06/17 15:39:02;;;;;;;1.70;1.60;;;48.10;18.90;;;;;;5071416;28;20462;-83
2022/06/17 15:41:34;;;;;;;1.60;1.50;;;48.30;18.90;;;;;;5073193;28;20457;-85
2022/06/17 15:44:51;;;;;;;;;;;;;;;;;;;;;
2022/06/17 15:47:19;;;;;;;2.13;1.97;;;48.80;18.70;;;;;;5080081;28;20443;-86
2022/06/17 15:49:51;;;;;;;1.83;1.73;;;49.00;18.60;;;;;;5071481;28;20542;-86
2022/06/17 15:52:29;;;;;;;2.00;1.87;;;49.30;18.40;;;;;;5079775;28;20994;-86
2022/06/17 15:55:06;;;;;;;1.60;1.50;;;49.10;17.70;;;;;;5092264;28;20541;-86
2022/06/17 15:57:53;;;;;;;1.50;1.50;;;49.20;17.90;;;;;;5083155;28;20448;-85
2022/06/17 16:00:23;;;;;;;1.87;1.77;;;49.00;17.60;;;;;;5091382;28;20446;-84
2022/06/17 16:02:52;;;;;;;2.20;2.00;;;49.10;19.10;;;;;;5079760;28;20475;-84
2022/06/17 16:05:25;;;;;;;3.17;1.90;;;48.70;18.70;;;;;;5072257;28;20451;-86
2022/06/17 16:07:53;;;;;;;2.80;2.70;;;48.60;18.90;;;;;;5072978;28;20451;-85
2022/06/17 16:10:42;;;;;;;2.10;2.00;;;47.90;19.10;;;;;;5074065;28;20479;-87
2022/06/17 16:16:54;;;;;;;2.53;2.13;;;47.10;19.80;;;;;;5041326;28;20444;-86
2022/06/17 16:19:44;;;;;;;2.10;2.00;;;47.10;19.80;;;;;;5064150;28;20443;-85
2022/06/17 16:22:22;;;;;;;2.40;2.20;;;47.00;19.70;;;;;;5083704;28;20459;-84
2022/06/17 16:24:57;;;;;;;2.13;2.03;;;47.10;19.40;;;;;;5071844;28;20892;-86
2022/06/17 16:27:32;;;;;;;2.00;1.90;;;47.30;19.80;;;;;;5074368;28;20991;-85
2022/06/17 16:30:06;;;;;;;2.43;2.23;;;47.30;19.60;;;;;;5073479;28;20507;-85
2022/06/17 16:32:41;;;;;;;1.80;1.70;;;47.60;20.10;;;;;;5080898;28;20470;-87
2022/06/17 16:35:28;;;;;;;1.87;1.77;;;47.90;19.50;;;;;;5091829;28;20458;-86
2022/06/17 16:37:56;;;;;;;2.03;1.93;;;48.10;19.50;;;;;;5079196;28;20462;-86
2022/06/17 16:46:14;;;;;;;2.73;2.63;;;46.60;19.70;;;;;;5082357;28;20530;-85
2022/06/17 16:48:42;;;;;;;2.20;2.10;;;46.10;19.70;;;;;;5085387;28;20450;-86
2022/06/17 16:51:27;;;;;;;2.50;2.30;;;45.70;20.40;;;;;;5091152;28;20482;-86
2022/06/17 16:53:55;;;;;;;2.00;1.90;;;45.50;21.00;;;;;;5075494;28;20508;-84
2022/06/17 16:56:47;;;;;;;2.50;2.40;;;45.40;20.70;;;;;;5067782;28;20454;-85
2022/06/17 16:59:15;;;;;;;2.70;2.37;;;45.20;20.20;;;;;;5054582;28;20452;-86
2022/06/17 17:02:05;;;;;;;2.17;2.07;;;45.20;21.00;;;;;;5070880;28;20489;-86
2022/06/17 17:04:32;;;;;;;2.20;2.10;;;45.20;20.90;;;;;;5073313;28;20471;-85
2022/06/17 17:07:00;;;;;;;2.33;2.23;;;45.00;21.30;;;;;;5054635;28;20955;-85
2022/06/17 17:09:28;;;;;;;2.40;2.20;;;44.80;21.00;;;;;;5078042;28;20980;-85
2022/06/17 17:11:55;;;;;;;2.60;2.50;;;44.30;21.30;;;;;;5086895;28;20487;-85
2022/06/17 17:14:23;;;;;;;2.77;2.60;;;44.00;21.60;;;;;;5074304;28;20987;-84
2022/06/17 17:16:49;;;;;;;4.43;1.93;;;43.60;21.50;;;;;;5073433;28;20554;-84
2022/06/17 17:19:16;;;;;;;1.90;1.80;;;42.90;21.20;;;;;;5075078;28;20451;-85
2022/06/17 17:21:48;;;;;;;2.40;2.23;;;42.40;21.20;;;;;;5074290;28;20454;-86